Etusivu
METAR-TAF:

METAR-TAF

Lentoasemat :

Providencia, Kolumbia

Leveyspiiri: 13-22N, Pituuspiiri: 081-21W, korkeus merenpinnasta: 6 m

Tämänhetkinen sää

Tämä raportti tehtiin 43 minuuttia sitten, kello 12.00 UTC
Tuuli 6 kn eri suunnista
Lämpötila 27°C
Kosteus 79%
Ilmanpaine 1013 hPa
Näkyvyys 10 km tai enemmän
Muutamia pilviä 1700 ft:n korkeudessa

METAR: SKPV 081200Z VRB06KT 9999 FEW017 27/23 A2992

Aika: 07:43 (12:43 UTC)


TAF: puuttuu

Säähavainnot ja -ennusteet yli 4000 lentoasemalta (METAR- ja TAF-raportit).

Käytössä olevat sääasemat on merkitty karttaan keltaisilla ja punaisilla pisteillä.

Aseta hiiri pisteen päälle nähdäksesi sääaseman nimen.

Klikkaa sitten nähdäksesi säähavainnot ja -ennusteet.

Kartan vaihtaminen: klikkaa mustalla rastilla varustettuja vihreitä pisteitä, niin voit zoomata sisään; viivalla varustettua vihreää pistettä, niin voit zoomata ulos tai vihreitä nuolia, niin pääset viereisille kartoille.


METAR-TAF: